Time;durP1;ratioP1;P1;durP2;ratioP2;P2;SDS_P1;SDS_P2;PMS_P1;PMS_P2;Temp;Humidity;BMP_temperature;BMP_pressure;BME280_temperature;BME280_humidity;BME280_pressure;Samples;Min_cycle;Max_cycle;Signal;HPM_P1;HPM_P2
2023/11/08 00:01:49;;;;;;;0.13;0.13;;;;;;;12.45;80.39;101227.22;4974657;28;20199;-90
2023/11/08 00:04:14;;;;;;;0.10;0.10;;;;;;;12.41;80.10;101221.34;5006690;28;20029;-89
2023/11/08 00:06:42;;;;;;;0.15;0.15;;;;;;;12.40;80.61;101211.88;4989998;28;20421;-90
2023/11/08 00:09:09;;;;;;;0.10;0.10;;;;;;;12.43;81.03;101208.28;5006547;28;20041;-89
2023/11/08 00:11:35;;;;;;;0.10;0.10;;;;;;;12.44;80.69;101191.81;4990289;28;20058;-89
2023/11/08 00:14:01;;;;;;;0.10;0.10;;;;;;;12.46;80.84;101179.59;5006505;28;20026;-88
2023/11/08 00:16:27;;;;;;;0.20;0.20;;;;;;;12.50;80.58;101178.56;4990470;28;20030;-89
2023/11/08 00:18:52;;;;;;;0.20;0.20;;;;;;;12.54;80.43;101193.88;4992651;28;20026;-90
2023/11/08 00:21:18;;;;;;;0.20;0.20;;;;;;;12.41;80.78;101202.34;4994609;28;20034;-89
2023/11/08 00:23:43;;;;;;;0.10;0.10;;;;;;;12.43;80.87;101185.78;4994057;28;20034;-88
2023/11/08 00:26:10;;;;;;;0.10;0.10;;;;;;;12.57;80.39;101191.13;4993988;28;20578;-91
2023/11/08 00:28:36;;;;;;;0.10;0.10;;;;;;;12.56;80.83;101192.06;4994146;28;20121;-91
2023/11/08 00:31:01;;;;;;;0.20;0.20;;;;;;;12.49;80.54;101174.28;4994201;28;20014;-88
2023/11/08 00:33:27;;;;;;;0.10;0.10;;;;;;;12.46;81.09;101182.19;4994288;28;20508;-89
2023/11/08 00:35:52;;;;;;;0.10;0.10;;;;;;;12.38;80.96;101160.94;4994093;28;20034;-90
2023/11/08 00:38:18;;;;;;;0.17;0.17;;;;;;;12.54;80.63;101169.69;4994144;28;20030;-91
2023/11/08 00:40:44;;;;;;;0.20;0.20;;;;;;;12.40;80.18;101146.16;4993934;28;20439;-90
2023/11/08 00:43:10;;;;;;;0.10;0.10;;;;;;;12.44;80.05;101151.13;4994002;28;20532;-89
2023/11/08 00:45:36;;;;;;;0.15;0.15;;;;;;;12.49;80.47;101148.31;4993544;28;20030;-90
2023/11/08 00:48:01;;;;;;;0.10;0.10;;;;;;;12.34;80.85;101119.59;5010401;28;20018;-89
2023/11/08 00:50:30;;;;;;;0.10;0.10;;;;;;;12.33;81.09;101102.34;4993690;28;20022;-89
2023/11/08 00:52:58;;;;;;;0.20;0.20;;;;;;;12.48;81.05;101118.06;4993774;28;20053;-89
2023/11/08 00:55:24;;;;;;;0.20;0.20;;;;;;;12.40;80.97;101112.44;5009796;28;20023;-90
2023/11/08 00:57:50;;;;;;;0.20;0.20;;;;;;;12.38;81.14;101128.06;5009748;28;20080;-89
2023/11/08 01:00:16;;;;;;;0.20;0.20;;;;;;;12.34;81.46;101140.34;4993702;28;20030;-89
2023/11/08 01:02:41;;;;;;;0.10;0.10;;;;;;;12.39;81.31;101147.94;5009704;28;20033;-89
2023/11/08 01:05:08;;;;;;;0.10;0.10;;;;;;;12.39;81.27;101126.31;4993278;28;20462;-91
2023/11/08 01:07:33;;;;;;;0.20;0.20;;;;;;;12.33;80.79;101117.06;4992861;28;20065;-89
2023/11/08 01:09:59;;;;;;;0.10;0.10;;;;;;;12.40;81.00;101089.09;5009718;28;20026;-90
2023/11/08 01:12:25;;;;;;;0.20;0.20;;;;;;;12.35;81.32;101103.09;4993400;28;20072;-91
2023/11/08 01:14:51;;;;;;;0.10;0.10;;;;;;;12.20;82.63;101082.28;4993364;28;20468;-90
2023/11/08 01:17:16;;;;;;;0.10;0.10;;;;;;;12.22;82.61;101057.09;4977016;28;20029;-89
2023/11/08 01:19:42;;;;;;;0.10;0.10;;;;;;;12.09;83.41;101077.56;4993127;28;20412;-91
2023/11/08 01:22:09;;;;;;;0.20;0.20;;;;;;;12.20;82.97;101083.13;4976788;28;20026;-89
2023/11/08 01:24:35;;;;;;;0.20;0.20;;;;;;;12.15;83.66;101071.25;4993183;28;20468;-89
2023/11/08 01:27:01;;;;;;;0.10;0.10;;;;;;;12.06;83.72;101054.41;4993300;28;20030;-89
2023/11/08 01:29:27;;;;;;;0.10;0.10;;;;;;;12.17;83.67;101070.28;5009336;28;20060;-90
2023/11/08 01:31:56;;;;;;;0.20;0.20;;;;;;;12.28;83.81;101062.81;5009591;28;20447;-91
2023/11/08 01:34:22;;;;;;;0.10;0.10;;;;;;;12.26;83.81;101049.06;4992979;28;20029;-89
2023/11/08 01:36:48;;;;;;;0.10;0.10;;;;;;;12.27;83.19;101044.72;4992495;28;20026;-89
2023/11/08 01:39:13;;;;;;;0.10;0.10;;;;;;;12.40;83.19;101039.78;4992770;28;20061;-90
2023/11/08 01:41:45;;;;;;;0.10;0.10;;;;;;;12.48;83.13;101045.41;4976617;28;20030;-89
2023/11/08 01:44:12;;;;;;;0.10;0.10;;;;;;;12.48;82.39;101030.69;5008897;28;20038;-90
2023/11/08 01:46:38;;;;;;;0.10;0.10;;;;;;;12.49;82.46;101019.41;4992755;28;20172;-90
2023/11/08 01:49:04;;;;;;;0.10;0.10;;;;;;;12.57;82.34;101065.72;4992794;28;20030;-90
2023/11/08 01:51:30;;;;;;;0.20;0.20;;;;;;;12.49;82.77;101067.88;4992469;28;20417;-89
2023/11/08 01:53:55;;;;;;;0.20;0.20;;;;;;;12.44;82.50;101051.69;4992905;28;20069;-89
2023/11/08 01:56:21;;;;;;;0.20;0.20;;;;;;;12.39;82.96;101043.28;4992974;28;20030;-90
2023/11/08 01:58:46;;;;;;;0.10;0.10;;;;;;;12.35;82.76;101040.84;4976289;28;20443;-89
2023/11/08 02:01:12;;;;;;;0.10;0.10;;;;;;;12.49;82.56;101062.69;4976382;28;20050;-88
2023/11/08 02:03:39;;;;;;;0.20;0.20;;;;;;;12.43;82.79;101055.19;4992187;28;20034;-90
2023/11/08 02:06:06;;;;;;;0.20;0.20;;;;;;;12.50;82.93;101079.94;5008137;28;20471;-88
2023/11/08 02:08:31;;;;;;;0.10;0.10;;;;;;;12.50;82.61;101083.38;4992073;28;20476;-89
2023/11/08 02:10:58;;;;;;;0.10;0.10;;;;;;;12.18;82.47;101071.09;4992455;28;20053;-90
2023/11/08 02:13:29;;;;;;;0.20;0.20;;;;;;;12.43;82.61;101130.44;5008536;28;20033;-90
2023/11/08 02:15:55;;;;;;;0.20;0.20;;;;;;;12.33;82.31;101133.47;4992570;28;20022;-89
2023/11/08 02:18:20;;;;;;;0.10;0.10;;;;;;;12.34;81.93;101129.97;4992022;28;20038;-87
2023/11/08 02:20:46;;;;;;;0.10;0.10;;;;;;;12.30;81.60;101128.44;4991843;28;20026;-89
2023/11/08 02:23:11;;;;;;;0.20;0.20;;;;;;;12.23;82.76;101153.00;4975875;28;20022;-89
2023/11/08 02:25:42;;;;;;;0.10;0.10;;;;;;;12.07;83.17;101157.22;4991934;28;20022;-88
2023/11/08 02:28:08;;;;;;;0.20;0.20;;;;;;;11.96;83.77;101177.63;4991887;28;20029;-88
2023/11/08 02:30:33;;;;;;;0.20;0.20;;;;;;;11.65;84.87;101189.34;4991973;28;20030;-87
2023/11/08 02:32:59;;;;;;;0.10;0.10;;;;;;;11.69;84.90;101193.47;4975592;28;20031;-88
2023/11/08 02:35:24;;;;;;;0.20;0.20;;;;;;;11.69;86.14;101201.25;4975101;28;20499;-87
2023/11/08 02:37:50;;;;;;;0.10;0.10;;;;;;;11.55;87.70;101206.19;4975148;28;20034;-88
2023/11/08 02:40:15;;;;;;;0.10;0.10;;;;;;;11.53;88.79;101197.66;4974852;28;20026;-88
2023/11/08 02:42:45;;;;;;;0.10;0.10;;;;;;;11.55;90.48;101201.03;4991214;28;20028;-88
2023/11/08 02:45:11;;;;;;;0.10;0.10;;;;;;;11.48;92.02;101246.22;4991641;28;20061;-88
2023/11/08 02:47:36;;;;;;;0.20;0.20;;;;;;;11.62;92.96;101243.91;4991219;28;20024;-88
2023/11/08 02:50:03;;;;;;;0.10;0.10;;;;;;;11.70;93.71;101256.50;4974987;28;20034;-86
2023/11/08 02:52:29;;;;;;;0.10;0.10;;;;;;;11.63;93.79;101253.38;5007436;28;20026;-88
2023/11/08 02:54:54;;;;;;;0.10;0.10;;;;;;;11.78;93.97;101273.41;4991411;28;20034;-89
2023/11/08 02:57:20;;;;;;;0.20;0.20;;;;;;;11.86;94.35;101287.84;4991463;28;20531;-88
2023/11/08 02:59:46;;;;;;;0.20;0.20;;;;;;;11.87;94.20;101294.69;4974951;28;20049;-86
2023/11/08 03:02:12;;;;;;;0.10;0.10;;;;;;;11.87;93.77;101300.72;4991056;28;20037;-89
2023/11/08 03:04:38;;;;;;;0.20;0.20;;;;;;;11.97;93.70;101316.72;4974576;28;20392;-88
2023/11/08 03:07:04;;;;;;;0.20;0.20;;;;;;;11.95;93.56;101300.41;4974613;28;20523;-88
2023/11/08 03:09:32;;;;;;;0.20;0.20;;;;;;;12.02;93.55;101289.69;5007146;28;20136;-88
2023/11/08 03:11:58;;;;;;;0.10;0.10;;;;;;;12.12;93.23;101303.09;5007242;28;20080;-88
2023/11/08 03:14:25;;;;;;;0.10;0.10;;;;;;;12.18;92.31;101283.81;4990877;28;20392;-87
2023/11/08 03:16:51;;;;;;;0.10;0.10;;;;;;;12.24;92.25;101279.19;4990686;28;20054;-88
2023/11/08 03:19:16;;;;;;;0.20;0.20;;;;;;;12.25;92.56;101280.88;4990345;28;20518;-87
2023/11/08 03:21:45;;;;;;;0.10;0.10;;;;;;;12.28;92.11;101288.50;4990665;28;20495;-87
2023/11/08 03:24:11;;;;;;;0.20;0.20;;;;;;;12.30;91.89;101284.13;4990371;28;20030;-88
2023/11/08 03:26:36;;;;;;;0.10;0.10;;;;;;;12.29;91.89;101266.88;4974473;28;20033;-89
2023/11/08 03:29:02;;;;;;;0.20;0.20;;;;;;;12.30;91.67;101265.94;4990750;28;20113;-88
2023/11/08 03:31:29;;;;;;;0.13;0.13;;;;;;;12.33;91.69;101278.78;4990846;28;20041;-88
2023/11/08 03:33:57;;;;;;;0.10;0.10;;;;;;;12.37;91.58;101268.25;5006116;28;20036;-90
2023/11/08 03:36:25;;;;;;;0.10;0.10;;;;;;;12.44;91.38;101267.91;4990372;28;20061;-89
2023/11/08 03:38:50;;;;;;;0.10;0.10;;;;;;;12.46;91.54;101279.03;4990455;28;20081;-88
2023/11/08 03:41:16;;;;;;;0.20;0.20;;;;;;;12.54;90.92;101270.91;4990483;28;20019;-88
2023/11/08 03:43:41;;;;;;;0.10;0.10;;;;;;;12.62;90.73;101279.19;4990466;28;20022;-89
2023/11/08 03:46:07;;;;;;;0.20;0.20;;;;;;;12.63;90.54;101286.06;4990622;28;20092;-88
2023/11/08 03:48:32;;;;;;;0.20;0.20;;;;;;;12.70;90.09;101281.41;4990208;28;20030;-91
2023/11/08 03:50:58;;;;;;;0.10;0.10;;;;;;;12.71;89.66;101289.13;4990517;28;20022;-89
2023/11/08 03:53:24;;;;;;;0.10;0.10;;;;;;;12.69;90.35;101278.00;4990610;28;20022;-89
2023/11/08 03:55:50;;;;;;;0.20;0.20;;;;;;;12.75;89.76;101275.09;5006737;28;20092;-88
2023/11/08 03:58:16;;;;;;;0.10;0.10;;;;;;;12.76;89.65;101276.75;4974327;28;20096;-89
2023/11/08 04:00:42;;;;;;;0.10;0.10;;;;;;;12.73;90.14;101276.06;4990122;28;20080;-84
2023/11/08 04:03:07;;;;;;;0.10;0.10;;;;;;;12.83;90.34;101272.97;4989727;28;20022;-84
2023/11/08 04:05:33;;;;;;;0.20;0.20;;;;;;;12.91;90.03;101265.66;4989912;28;20096;-83
2023/11/08 04:07:59;;;;;;;0.20;0.20;;;;;;;12.87;89.48;101261.50;5006122;28;20447;-83
2023/11/08 04:10:25;;;;;;;0.10;0.10;;;;;;;12.92;89.53;101267.34;4990085;28;20022;-82
2023/11/08 04:12:51;;;;;;;0.20;0.20;;;;;;;12.89;88.94;101275.28;4989814;28;20096;-83
2023/11/08 04:15:17;;;;;;;0.10;0.10;;;;;;;12.81;89.28;101269.59;4989734;28;20033;-83
2023/11/08 04:17:42;;;;;;;0.10;0.10;;;;;;;12.78;89.48;101261.97;4989371;28;20023;-83
2023/11/08 04:20:12;;;;;;;0.10;0.10;;;;;;;12.75;89.33;101262.09;4974188;28;20495;-83
2023/11/08 04:22:41;;;;;;;0.20;0.20;;;;;;;12.78;88.99;101267.16;4974164;28;20041;-83
2023/11/08 04:25:07;;;;;;;0.10;0.10;;;;;;;12.85;89.57;101276.31;5005961;28;20026;-84
2023/11/08 04:27:32;;;;;;;0.10;0.10;;;;;;;12.92;89.63;101271.69;5006078;28;20022;-83
2023/11/08 04:29:58;;;;;;;0.10;0.10;;;;;;;12.84;89.20;101264.25;4989966;28;20369;-83
2023/11/08 04:32:24;;;;;;;0.10;0.10;;;;;;;12.97;89.23;101263.66;4989271;28;20061;-83
2023/11/08 04:34:51;;;;;;;0.10;0.10;;;;;;;12.93;89.13;101250.00;5005968;28;20053;-83
2023/11/08 04:37:17;;;;;;;0.20;0.20;;;;;;;13.04;88.58;101267.66;4989711;28;20018;-83
2023/11/08 04:39:46;;;;;;;0.17;0.17;;;;;;;12.96;88.69;101246.41;4954921;28;20029;-81
2023/11/08 04:42:14;;;;;;;0.10;0.10;;;;;;;12.85;89.00;101247.75;4989290;28;20034;-84
2023/11/08 04:44:39;;;;;;;0.20;0.20;;;;;;;12.96;88.32;101246.41;5005522;28;20081;-86
2023/11/08 04:47:05;;;;;;;0.10;0.10;;;;;;;13.10;88.19;101264.75;4990907;28;20026;-93
2023/11/08 04:49:31;;;;;;;0.10;0.10;;;;;;;13.10;88.36;101246.56;4981552;28;20023;-92
2023/11/08 04:51:56;;;;;;;0.20;0.20;;;;;;;13.09;88.73;101248.34;4999352;28;20085;-92
2023/11/08 04:54:22;;;;;;;0.15;0.15;;;;;;;13.08;89.39;101262.25;4993591;28;20061;-91
2023/11/08 04:56:48;;;;;;;0.10;0.10;;;;;;;13.03;90.88;101260.78;4979963;28;20061;-93
2023/11/08 04:59:14;;;;;;;0.10;0.10;;;;;;;13.13;90.41;101262.00;4995340;28;20045;-92
2023/11/08 05:01:42;;;;;;;0.20;0.20;;;;;;;13.10;90.15;101269.94;4977519;28;20022;-91
2023/11/08 05:04:08;;;;;;;0.10;0.10;;;;;;;13.03;89.93;101247.78;4979355;28;20038;-91
2023/11/08 05:06:34;;;;;;;0.20;0.20;;;;;;;13.15;89.66;101274.00;5000561;28;20047;-93
2023/11/08 05:09:00;;;;;;;0.20;0.20;;;;;;;13.15;89.49;101273.16;4988519;28;20039;-92
2023/11/08 05:11:27;;;;;;;0.10;0.10;;;;;;;13.26;89.29;101270.88;4971393;28;20023;-91
2023/11/08 05:13:54;;;;;;;0.13;0.13;;;;;;;13.31;89.56;101278.47;4975898;28;20093;-92
2023/11/08 05:16:22;;;;;;;0.20;0.20;;;;;;;13.27;88.16;101290.75;4969946;28;20086;-93
2023/11/08 05:18:50;;;;;;;0.10;0.10;;;;;;;13.10;88.16;101269.94;4976626;28;20070;-91
2023/11/08 05:21:16;;;;;;;0.10;0.10;;;;;;;12.90;87.95;101231.97;5115848;23;20126;-95
2023/11/08 05:23:42;;;;;;;0.10;0.10;;;;;;;13.02;88.03;101256.50;4984913;28;20043;-93
2023/11/08 05:26:07;;;;;;;0.20;0.20;;;;;;;13.14;88.54;101282.69;4964698;28;20035;-93
2023/11/08 05:28:33;;;;;;;0.10;0.10;;;;;;;13.18;88.72;101283.41;4959724;28;20413;-92
2023/11/08 05:31:02;;;;;;;0.20;0.20;;;;;;;13.12;88.25;101265.53;4975412;28;20027;-95
2023/11/08 05:33:31;;;;;;;0.20;0.20;;;;;;;13.17;88.45;101279.09;4982553;28;20085;-94
2023/11/08 05:35:56;;;;;;;0.10;0.10;;;;;;;13.16;88.80;101285.22;4957981;28;20093;-86
2023/11/08 05:38:22;;;;;;;0.10;0.10;;;;;;;13.02;89.62;101285.06;4986472;28;20047;-94
2023/11/08 05:40:48;;;;;;;0.20;0.20;;;;;;;13.14;89.17;101292.25;4948080;28;20047;-89
2023/11/08 05:43:13;;;;;;;0.10;0.10;;;;;;;13.10;89.21;101282.94;4954712;28;20028;-91
2023/11/08 05:45:38;;;;;;;0.10;0.10;;;;;;;13.10;89.39;101280.34;4974321;28;20030;-87
2023/11/08 05:48:04;;;;;;;0.10;0.10;;;;;;;13.15;88.56;101278.34;4957098;28;20035;-93
2023/11/08 05:50:30;;;;;;;0.10;0.10;;;;;;;13.25;88.76;101290.00;4976452;28;20058;-95
2023/11/08 05:52:55;;;;;;;0.10;0.10;;;;;;;13.15;89.37;101288.75;4976881;28;20038;-86
2023/11/08 05:55:21;;;;;;;0.10;0.10;;;;;;;13.15;88.93;101278.34;4973838;28;20035;-88
2023/11/08 05:57:46;;;;;;;0.10;0.10;;;;;;;13.17;88.39;101274.78;4971756;28;20097;-89
2023/11/08 06:00:14;;;;;;;0.20;0.20;;;;;;;13.25;88.63;101284.81;4952357;28;20086;-87
2023/11/08 06:02:39;;;;;;;0.20;0.20;;;;;;;13.13;89.02;101283.63;4965087;28;20077;-88
2023/11/08 06:05:05;;;;;;;0.13;0.13;;;;;;;13.16;89.46;101270.47;4957132;28;20038;-91
2023/11/08 06:07:31;;;;;;;0.10;0.10;;;;;;;13.16;89.28;101282.63;4972281;28;20054;-91
2023/11/08 06:09:58;;;;;;;0.10;0.10;;;;;;;13.17;89.34;101274.78;4974722;28;20031;-87
2023/11/08 06:12:24;;;;;;;0.10;0.10;;;;;;;13.09;89.81;101269.13;4961126;28;20031;-94
2023/11/08 06:14:50;;;;;;;0.10;0.10;;;;;;;13.27;89.88;101277.75;4968280;28;20037;-87
2023/11/08 06:17:15;;;;;;;0.20;0.20;;;;;;;13.32;89.31;101272.34;4971035;28;20027;-89
2023/11/08 06:19:41;;;;;;;0.10;0.10;;;;;;;13.29;89.21;101273.34;4969117;28;20118;-92
2023/11/08 06:22:07;;;;;;;0.10;0.10;;;;;;;13.36;89.00;101287.69;4942320;28;20062;-89
2023/11/08 06:24:32;;;;;;;0.20;0.20;;;;;;;13.40;88.93;101301.41;4980350;28;20045;-85
2023/11/08 06:27:00;;;;;;;0.20;0.20;;;;;;;13.32;88.79;101301.78;4973178;28;20034;-84
2023/11/08 06:29:26;;;;;;;0.20;0.20;;;;;;;13.36;89.05;101305.91;4963505;28;20058;-94
2023/11/08 06:31:52;;;;;;;0.20;0.20;;;;;;;13.16;89.23;101272.22;4955919;28;20027;-85
2023/11/08 06:34:17;;;;;;;0.10;0.10;;;;;;;13.28;89.30;101300.25;4972603;28;20089;-89
2023/11/08 06:36:43;;;;;;;0.10;0.10;;;;;;;13.36;89.30;101303.28;4956170;28;20034;-88
2023/11/08 06:39:12;;;;;;;0.13;0.13;;;;;;;13.39;89.09;101310.97;4972745;28;20034;-86
2023/11/08 06:41:39;;;;;;;0.20;0.20;;;;;;;13.44;89.71;101315.91;4960618;28;20524;-92
2023/11/08 06:44:05;;;;;;;0.20;0.20;;;;;;;13.40;90.21;101319.59;4977386;28;20046;-89
2023/11/08 06:46:31;;;;;;;0.10;0.10;;;;;;;13.37;90.63;101325.78;4957044;28;20145;-89
2023/11/08 06:48:57;;;;;;;0.20;0.20;;;;;;;13.33;90.52;101316.44;4937492;28;20390;-91
2023/11/08 06:51:24;;;;;;;0.10;0.10;;;;;;;13.47;90.10;101332.22;4957925;28;20030;-88
2023/11/08 06:53:50;;;;;;;0.10;0.10;;;;;;;13.36;90.21;101311.09;4961274;28;20038;-87
2023/11/08 06:56:15;;;;;;;0.10;0.10;;;;;;;13.53;89.98;101330.22;4969026;28;20034;-89
2023/11/08 06:58:42;;;;;;;0.20;0.20;;;;;;;13.41;90.29;101311.72;4960650;28;20021;-93
2023/11/08 07:01:10;;;;;;;0.20;0.20;;;;;;;13.36;90.26;101307.66;4958590;28;20533;-91
2023/11/08 07:03:35;;;;;;;0.10;0.10;;;;;;;13.52;90.42;101338.94;4953608;28;20508;-87
2023/11/08 07:06:04;;;;;;;0.10;0.10;;;;;;;13.50;90.53;101336.41;4977646;28;20058;-87
2023/11/08 07:08:32;;;;;;;0.20;0.20;;;;;;;13.47;89.82;101316.63;4969317;28;20037;-91
2023/11/08 07:10:57;;;;;;;0.10;0.10;;;;;;;13.40;90.15;101297.03;4954845;28;20038;-91
2023/11/08 07:13:23;;;;;;;0.20;0.20;;;;;;;13.52;90.23;101310.34;4972602;28;20039;-91
2023/11/08 07:15:48;;;;;;;0.10;0.10;;;;;;;13.73;89.84;101341.28;4953950;28;20567;-88
2023/11/08 07:18:14;;;;;;;0.20;0.20;;;;;;;13.76;89.87;101355.88;4971850;28;20513;-95
2023/11/08 07:20:43;;;;;;;0.10;0.10;;;;;;;13.78;89.92;101336.72;4978641;28;20096;-92
2023/11/08 07:23:09;;;;;;;0.20;0.20;;;;;;;13.90;89.58;101356.06;4995193;28;20041;-92
2023/11/08 07:25:37;;;;;;;0.10;0.10;;;;;;;13.91;90.21;101373.34;4993852;28;20133;-94
2023/11/08 07:28:05;;;;;;;0.20;0.20;;;;;;;13.74;89.59;101344.72;5007410;28;20468;-90
2023/11/08 07:30:31;;;;;;;0.20;0.20;;;;;;;13.82;89.26;101352.16;4991686;28;20563;-93
2023/11/08 07:32:56;;;;;;;0.10;0.10;;;;;;;13.89;90.26;101367.38;5007037;28;20018;-87
2023/11/08 07:35:23;;;;;;;0.10;0.10;;;;;;;13.79;90.13;101363.56;4995985;28;20428;-93
2023/11/08 07:37:49;;;;;;;0.10;0.10;;;;;;;13.93;89.28;101376.69;4972808;28;20042;-90
2023/11/08 07:40:21;;;;;;;0.10;0.10;;;;;;;13.95;89.25;101367.03;4973149;28;20030;-93
2023/11/08 07:42:47;;;;;;;;;;;;;;;14.05;89.46;101376.06;4981053;28;20050;-86
2023/11/08 07:45:13;;;;;;;0.20;0.20;;;;;;;13.67;89.77;101338.19;4992976;28;20380;-90
2023/11/08 07:47:38;;;;;;;0.20;0.20;;;;;;;13.82;90.39;101347.78;4989409;28;20026;-87
2023/11/08 07:50:05;;;;;;;0.10;0.10;;;;;;;13.91;90.47;101365.53;4972516;28;20030;-83
2023/11/08 07:52:31;;;;;;;0.20;0.20;;;;;;;14.02;90.42;101391.00;4977405;28;20165;-82
2023/11/08 07:54:58;;;;;;;0.10;0.10;;;;;;;13.94;90.73;101375.75;4990309;28;20034;-84
2023/11/08 07:57:24;;;;;;;0.10;0.10;;;;;;;14.04;90.64;101396.94;4972491;28;20065;-87
2023/11/08 07:59:50;;;;;;;0.10;0.10;;;;;;;13.94;90.67;101391.38;4979120;28;20069;-86
2023/11/08 08:02:16;;;;;;;0.20;0.20;;;;;;;13.94;90.79;101388.78;4986628;28;20060;-88
2023/11/08 08:04:42;;;;;;;0.20;0.20;;;;;;;13.95;91.18;101394.81;4980191;28;20030;-87
2023/11/08 08:07:08;;;;;;;0.10;0.10;;;;;;;13.94;91.01;101383.56;4988985;28;20046;-86
2023/11/08 08:09:34;;;;;;;0.10;0.10;;;;;;;13.98;91.05;101385.13;4991908;28;20030;-91
2023/11/08 08:12:00;;;;;;;0.20;0.20;;;;;;;13.84;91.44;101347.72;4986769;28;20543;-89
2023/11/08 08:14:26;;;;;;;0.20;0.20;;;;;;;14.02;91.25;101365.81;4984903;28;20493;-87
2023/11/08 08:16:52;;;;;;;0.10;0.10;;;;;;;14.03;91.10;101366.66;4988631;28;20034;-88
2023/11/08 08:19:18;;;;;;;0.13;0.13;;;;;;;14.10;91.56;101377.59;4972190;28;20035;-87
2023/11/08 08:21:44;;;;;;;0.20;0.20;;;;;;;14.12;91.28;101373.16;4990128;28;20050;-86
2023/11/08 08:24:09;;;;;;;0.20;0.20;;;;;;;14.19;91.18;101374.53;4988487;28;20034;-88
2023/11/08 08:26:35;;;;;;;0.10;0.10;;;;;;;14.21;91.46;101364.88;4989278;28;20041;-85
2023/11/08 08:29:01;;;;;;;0.20;0.20;;;;;;;14.25;91.03;101375.03;4972083;28;20365;-87
2023/11/08 08:31:27;;;;;;;0.10;0.10;;;;;;;14.33;90.96;101387.63;4988553;28;20412;-86
2023/11/08 08:33:56;;;;;;;0.20;0.20;;;;;;;14.35;91.54;101388.41;4992948;28;20034;-86
2023/11/08 08:36:22;;;;;;;0.10;0.10;;;;;;;14.26;91.35;101381.09;4979642;28;20404;-87
2023/11/08 08:38:47;;;;;;;0.13;0.13;;;;;;;14.41;91.29;101392.44;4979348;28;20042;-87
2023/11/08 08:41:13;;;;;;;0.10;0.10;;;;;;;14.34;90.95;101403.16;4992865;28;20343;-91
2023/11/08 08:43:39;;;;;;;0.20;0.20;;;;;;;14.32;91.85;101394.59;4968692;28;20073;-90
2023/11/08 08:46:05;;;;;;;0.20;0.20;;;;;;;14.38;92.29;101409.06;4993245;28;20141;-87
2023/11/08 08:48:31;;;;;;;0.20;0.20;;;;;;;14.35;91.94;101404.00;4983704;28;20425;-89
2023/11/08 08:50:57;;;;;;;0.10;0.10;;;;;;;14.39;92.35;101399.50;4975421;28;20117;-90
2023/11/08 08:53:23;;;;;;;0.20;0.20;;;;;;;14.31;91.86;101351.28;4998256;28;20498;-89
2023/11/08 08:55:48;;;;;;;0.20;0.20;;;;;;;14.45;91.89;101363.59;4975404;28;20042;-86
2023/11/08 08:58:14;;;;;;;0.20;0.20;;;;;;;14.46;92.07;101372.28;4959960;28;20041;-88
2023/11/08 09:00:40;;;;;;;0.10;0.10;;;;;;;14.44;91.88;101382.72;4987639;28;20421;-87
2023/11/08 09:03:07;;;;;;;0.20;0.20;;;;;;;14.40;91.66;101367.34;4999846;28;20028;-91
2023/11/08 09:05:33;;;;;;;0.10;0.10;;;;;;;14.50;91.52;101372.00;4985911;28;20026;-92
2023/11/08 09:08:00;;;;;;;0.10;0.10;;;;;;;14.59;92.04;101381.94;5000123;28;20485;-86
2023/11/08 09:10:26;;;;;;;0.20;0.20;;;;;;;14.67;92.37;101385.91;5000582;28;20030;-92
2023/11/08 09:12:52;;;;;;;0.10;0.10;;;;;;;14.72;91.63;101376.06;4976435;28;20492;-91
2023/11/08 09:15:17;;;;;;;0.10;0.10;;;;;;;14.81;92.01;101401.59;4996344;28;20043;-89
2023/11/08 09:17:43;;;;;;;0.10;0.10;;;;;;;14.91;91.02;101387.16;4975329;28;20057;-86
2023/11/08 09:20:09;;;;;;;0.20;0.20;;;;;;;14.97;90.99;101396.41;4992231;28;20086;-90
2023/11/08 09:22:35;;;;;;;0.20;0.20;;;;;;;14.88;91.08;101397.75;4958033;28;20035;-90
2023/11/08 09:25:03;;;;;;;0.10;0.10;;;;;;;14.83;90.23;101397.16;4979188;28;20030;-88
2023/11/08 09:27:30;;;;;;;0.20;0.20;;;;;;;14.93;90.37;101416.56;4985442;28;20121;-91
2023/11/08 09:29:56;;;;;;;0.10;0.10;;;;;;;14.78;91.41;101427.84;4946239;28;20030;-86
2023/11/08 09:32:21;;;;;;;0.10;0.10;;;;;;;14.70;91.55;101409.16;4978791;28;20483;-87
2023/11/08 09:34:49;;;;;;;0.10;0.10;;;;;;;14.61;92.44;101415.69;4975662;28;20034;-86
2023/11/08 09:37:16;;;;;;;0.10;0.10;;;;;;;14.46;92.24;101406.94;4970665;28;20022;-87
2023/11/08 09:39:43;;;;;;;0.10;0.10;;;;;;;14.41;93.31;101419.31;4955811;28;20027;-87
2023/11/08 09:42:09;;;;;;;0.20;0.20;;;;;;;14.31;92.66;101390.31;4967318;28;20066;-85
2023/11/08 09:44:34;;;;;;;0.20;0.20;;;;;;;14.48;92.87;101415.53;4974068;28;20027;-84
2023/11/08 09:47:00;;;;;;;0.10;0.10;;;;;;;14.37;92.53;101385.75;4974869;28;20029;-82
2023/11/08 09:49:25;;;;;;;0.20;0.20;;;;;;;14.55;93.40;101414.28;4974312;28;20477;-86
2023/11/08 09:51:52;;;;;;;0.10;0.10;;;;;;;14.62;93.15;101428.63;4972723;28;20094;-85
2023/11/08 09:54:17;;;;;;;0.20;0.20;;;;;;;14.57;93.26;101440.22;4955332;28;20034;-85
2023/11/08 09:56:44;;;;;;;0.10;0.10;;;;;;;14.51;93.30;101436.19;4976837;28;20062;-86
2023/11/08 09:59:11;;;;;;;0.20;0.20;;;;;;;14.49;93.41;101442.38;4964954;28;20062;-84
2023/11/08 10:01:37;;;;;;;0.10;0.10;;;;;;;14.36;93.48;101442.16;4940017;28;20039;-87
2023/11/08 10:04:03;;;;;;;0.10;0.10;;;;;;;14.39;94.06;101435.94;4964144;28;20134;-85
2023/11/08 10:06:31;;;;;;;0.20;0.20;;;;;;;14.39;93.50;101439.41;4959005;28;20508;-85
2023/11/08 10:08:58;;;;;;;0.10;0.10;;;;;;;14.42;93.61;101421.00;4979397;28;20121;-85
2023/11/08 10:11:29;;;;;;;0.10;0.10;;;;;;;14.31;93.43;101398.13;4936511;28;20035;-85
2023/11/08 10:13:55;;;;;;;0.20;0.20;;;;;;;14.47;92.32;101429.47;4954780;28;20122;-84
2023/11/08 10:16:21;;;;;;;0.10;0.10;;;;;;;14.27;92.08;101417.44;4962669;28;20042;-86
2023/11/08 10:18:56;;;;;;;0.20;0.20;;;;;;;14.51;92.44;101430.97;4957896;28;20031;-83
2023/11/08 10:21:23;;;;;;;0.20;0.20;;;;;;;14.53;91.52;101408.28;4977061;28;20058;-88
2023/11/08 10:23:50;;;;;;;0.20;0.20;;;;;;;14.49;90.99;101385.13;5009365;28;20532;-87
2023/11/08 10:26:19;;;;;;;0.20;0.20;;;;;;;14.45;91.23;101392.22;5006229;28;20054;-90
2023/11/08 10:29:01;;;;;;;0.20;0.20;;;;;;;14.60;90.94;101407.03;4980355;28;20042;-89
2023/11/08 10:31:34;;;;;;;0.20;0.20;;;;;;;14.39;91.60;101405.56;4984019;28;20112;-88
2023/11/08 10:34:03;;;;;;;0.20;0.20;;;;;;;14.30;91.49;101400.81;4991744;28;20067;-90
2023/11/08 10:36:29;;;;;;;0.10;0.10;;;;;;;14.32;91.75;101385.97;4987025;28;20033;-90
2023/11/08 10:38:55;;;;;;;0.10;0.10;;;;;;;14.46;91.43;101396.53;4975383;28;20062;-94
2023/11/08 10:41:21;;;;;;;0.10;0.10;;;;;;;14.54;90.90;101391.75;4987735;28;20045;-92
2023/11/08 10:43:47;;;;;;;0.10;0.10;;;;;;;14.70;90.47;101393.53;4962327;28;20054;-89
2023/11/08 10:46:13;;;;;;;0.10;0.10;;;;;;;14.47;89.92;101372.19;4983851;28;20026;-88
2023/11/08 10:48:39;;;;;;;0.10;0.10;;;;;;;14.75;89.95;101401.94;4990383;28;20540;-88
2023/11/08 10:51:05;;;;;;;0.10;0.10;;;;;;;14.51;90.45;101399.72;4992845;28;20030;-88
2023/11/08 10:53:31;;;;;;;0.10;0.10;;;;;;;14.47;91.03;101408.63;4989822;28;20038;-86
2023/11/08 10:56:01;;;;;;;0.20;0.20;;;;;;;14.46;90.92;101395.69;4995953;28;20033;-86
2023/11/08 10:58:33;;;;;;;0.10;0.10;;;;;;;14.40;91.06;101411.59;5005041;28;20414;-85
2023/11/08 11:00:59;;;;;;;0.10;0.10;;;;;;;14.33;92.31;101408.47;4994183;28;20038;-86
2023/11/08 11:03:25;;;;;;;0.10;0.10;;;;;;;14.23;91.89;101394.25;4987979;28;20121;-85
2023/11/08 11:05:50;;;;;;;0.20;0.20;;;;;;;14.29;91.86;101399.97;4989542;28;20100;-86
2023/11/08 11:08:19;;;;;;;0.20;0.20;;;;;;;14.30;92.27;101406.03;5001025;28;20058;-82
2023/11/08 11:10:44;;;;;;;0.20;0.20;;;;;;;14.29;91.91;101391.34;4986017;28;20031;-89
2023/11/08 11:13:11;;;;;;;0.20;0.20;;;;;;;14.41;91.06;101403.69;4986882;28;21326;-86
2023/11/08 11:16:03;;;;;;;0.20;0.20;;;;;;;14.32;89.91;101389.41;4964630;28;20109;-90
2023/11/08 11:18:32;;;;;;;0.20;0.20;;;;;;;14.13;89.54;101346.19;5003443;28;20520;-88
2023/11/08 11:21:53;;;;;;;0.20;0.20;;;;;;;14.39;89.25;101386.50;5002257;28;20050;-86